Sol'-Iletsk, Russia
Current Conditions -  °F | °C
As of 10:30 AM on Sunday 23 Nov 2014 (Local Time) from UWOO Reporting Station
Haze Haze  
Wind Chill: 13°   Ceiling: 800
Heat Index: 23°   Visibility: 3mi
Dew Point: 21°   Wind: 9mph
Humidity: 93%   Direction: 320°NW
Pressure: 30.06"   Gusts: NA
Location:  51.16°N, 55°E
Report Text: UWOO 230530Z 32004MPS 5000 BR OVC008 M05/M06 Q1018 26190057NOSIG RMK QFE753/1004
Loading
Personal Weather Stations






























Interactive Weather Map New forecast layout! Learn more

10-Day Weather Forecast

Advertisements
Track Severe Weather on mobile